sensor_id;sensor_type;location;lat;lon;timestamp;P1;durP1;ratioP1;P2;durP2;ratioP2
25351;SDS011;13304;48.464;8.712;2023-08-20T00:00:55;6.88;;;5.38;;
25351;SDS011;13304;48.464;8.712;2023-08-20T00:03:21;8.85;;;5.60;;
25351;SDS011;13304;48.464;8.712;2023-08-20T00:05:47;9.27;;;5.47;;
25351;SDS011;13304;48.464;8.712;2023-08-20T00:08:13;11.77;;;5.68;;
25351;SDS011;13304;48.464;8.712;2023-08-20T00:10:39;11.68;;;5.53;;
25351;SDS011;13304;48.464;8.712;2023-08-20T00:13:05;10.32;;;5.93;;
25351;SDS011;13304;48.464;8.712;2023-08-20T00:15:30;9.05;;;5.50;;
25351;SDS011;13304;48.464;8.712;2023-08-20T00:17:56;7.35;;;5.60;;
25351;SDS011;13304;48.464;8.712;2023-08-20T00:20:22;6.28;;;5.15;;
25351;SDS011;13304;48.464;8.712;2023-08-20T00:22:49;8.77;;;5.65;;
25351;SDS011;13304;48.464;8.712;2023-08-20T00:25:15;10.95;;;6.35;;
25351;SDS011;13304;48.464;8.712;2023-08-20T00:27:41;11.15;;;5.85;;
25351;SDS011;13304;48.464;8.712;2023-08-20T00:30:08;8.73;;;5.78;;
25351;SDS011;13304;48.464;8.712;2023-08-20T00:32:35;8.93;;;5.95;;
25351;SDS011;13304;48.464;8.712;2023-08-20T00:35:01;6.38;;;5.13;;
25351;SDS011;13304;48.464;8.712;2023-08-20T00:37:32;10.65;;;5.85;;
25351;SDS011;13304;48.464;8.712;2023-08-20T00:39:57;8.75;;;5.30;;
25351;SDS011;13304;48.464;8.712;2023-08-20T00:42:23;14.20;;;6.45;;
25351;SDS011;13304;48.464;8.712;2023-08-20T00:47:18;13.40;;;6.15;;
25351;SDS011;13304;48.464;8.712;2023-08-20T00:49:45;7.60;;;5.53;;
25351;SDS011;13304;48.464;8.712;2023-08-20T00:52:12;8.13;;;5.40;;
25351;SDS011;13304;48.464;8.712;2023-08-20T00:54:40;10.90;;;5.72;;
25351;SDS011;13304;48.464;8.712;2023-08-20T00:57:06;8.02;;;5.43;;
25351;SDS011;13304;48.464;8.712;2023-08-20T00:59:33;8.38;;;5.10;;
25351;SDS011;13304;48.464;8.712;2023-08-20T01:02:00;8.32;;;6.22;;
25351;SDS011;13304;48.464;8.712;2023-08-20T01:04:28;10.43;;;5.78;;
25351;SDS011;13304;48.464;8.712;2023-08-20T01:12:24;8.18;;;5.55;;
25351;SDS011;13304;48.464;8.712;2023-08-20T01:14:51;13.57;;;6.40;;
25351;SDS011;13304;48.464;8.712;2023-08-20T01:17:17;8.40;;;5.68;;
25351;SDS011;13304;48.464;8.712;2023-08-20T01:19:42;7.82;;;5.63;;
25351;SDS011;13304;48.464;8.712;2023-08-20T01:30:54;10.13;;;5.65;;
25351;SDS011;13304;48.464;8.712;2023-08-20T01:33:22;8.77;;;5.43;;
25351;SDS011;13304;48.464;8.712;2023-08-20T01:35:49;7.13;;;5.38;;
25351;SDS011;13304;48.464;8.712;2023-08-20T01:38:16;8.38;;;6.25;;
25351;SDS011;13304;48.464;8.712;2023-08-20T01:40:42;10.82;;;5.53;;
25351;SDS011;13304;48.464;8.712;2023-08-20T01:43:07;9.45;;;6.03;;
25351;SDS011;13304;48.464;8.712;2023-08-20T01:45:33;9.68;;;5.32;;
25351;SDS011;13304;48.464;8.712;2023-08-20T01:47:59;8.85;;;5.97;;
25351;SDS011;13304;48.464;8.712;2023-08-20T01:50:25;10.88;;;5.53;;
25351;SDS011;13304;48.464;8.712;2023-08-20T01:52:51;9.32;;;6.13;;
25351;SDS011;13304;48.464;8.712;2023-08-20T01:55:16;7.85;;;5.63;;
25351;SDS011;13304;48.464;8.712;2023-08-20T01:57:42;12.23;;;6.03;;
25351;SDS011;13304;48.464;8.712;2023-08-20T02:00:08;7.25;;;5.63;;
25351;SDS011;13304;48.464;8.712;2023-08-20T02:02:34;13.13;;;6.03;;
25351;SDS011;13304;48.464;8.712;2023-08-20T02:05:00;7.78;;;5.53;;
25351;SDS011;13304;48.464;8.712;2023-08-20T02:07:26;11.48;;;5.80;;
25351;SDS011;13304;48.464;8.712;2023-08-20T02:09:52;9.82;;;5.63;;
25351;SDS011;13304;48.464;8.712;2023-08-20T02:12:18;11.43;;;6.20;;
25351;SDS011;13304;48.464;8.712;2023-08-20T02:14:43;9.70;;;6.22;;
25351;SDS011;13304;48.464;8.712;2023-08-20T02:17:09;11.40;;;5.78;;
25351;SDS011;13304;48.464;8.712;2023-08-20T02:19:37;10.10;;;6.10;;
25351;SDS011;13304;48.464;8.712;2023-08-20T02:22:03;10.77;;;6.38;;
25351;SDS011;13304;48.464;8.712;2023-08-20T02:24:29;7.78;;;5.80;;
25351;SDS011;13304;48.464;8.712;2023-08-20T02:26:55;8.27;;;5.57;;
25351;SDS011;13304;48.464;8.712;2023-08-20T02:29:20;7.28;;;6.07;;
25351;SDS011;13304;48.464;8.712;2023-08-20T02:31:46;8.98;;;6.38;;
25351;SDS011;13304;48.464;8.712;2023-08-20T02:34:12;6.68;;;5.50;;
25351;SDS011;13304;48.464;8.712;2023-08-20T02:36:37;9.20;;;6.10;;
25351;SDS011;13304;48.464;8.712;2023-08-20T02:39:03;8.27;;;5.72;;
25351;SDS011;13304;48.464;8.712;2023-08-20T02:44:01;8.18;;;6.22;;
25351;SDS011;13304;48.464;8.712;2023-08-20T02:46:28;12.85;;;6.75;;
25351;SDS011;13304;48.464;8.712;2023-08-20T02:48:54;11.25;;;6.25;;
25351;SDS011;13304;48.464;8.712;2023-08-20T02:51:20;10.77;;;6.90;;
25351;SDS011;13304;48.464;8.712;2023-08-20T02:53:45;8.77;;;6.63;;
25351;SDS011;13304;48.464;8.712;2023-08-20T02:56:11;9.10;;;6.32;;
25351;SDS011;13304;48.464;8.712;2023-08-20T02:58:37;10.57;;;6.20;;
25351;SDS011;13304;48.464;8.712;2023-08-20T03:01:02;9.98;;;6.20;;
25351;SDS011;13304;48.464;8.712;2023-08-20T03:03:28;10.43;;;6.15;;
25351;SDS011;13304;48.464;8.712;2023-08-20T03:05:54;9.30;;;5.82;;
25351;SDS011;13304;48.464;8.712;2023-08-20T03:08:20;12.50;;;6.35;;
25351;SDS011;13304;48.464;8.712;2023-08-20T03:10:45;7.72;;;6.53;;
25351;SDS011;13304;48.464;8.712;2023-08-20T03:13:11;7.88;;;5.95;;
25351;SDS011;13304;48.464;8.712;2023-08-20T03:15:37;9.63;;;6.00;;
25351;SDS011;13304;48.464;8.712;2023-08-20T03:18:03;10.70;;;6.15;;
25351;SDS011;13304;48.464;8.712;2023-08-20T03:20:30;13.18;;;6.80;;
25351;SDS011;13304;48.464;8.712;2023-08-20T03:22:56;10.82;;;6.72;;
25351;SDS011;13304;48.464;8.712;2023-08-20T03:25:22;9.15;;;6.45;;
25351;SDS011;13304;48.464;8.712;2023-08-20T03:27:49;7.68;;;6.05;;
25351;SDS011;13304;48.464;8.712;2023-08-20T03:30:16;8.27;;;6.50;;
25351;SDS011;13304;48.464;8.712;2023-08-20T03:32:42;9.90;;;6.60;;
25351;SDS011;13304;48.464;8.712;2023-08-20T03:35:08;7.07;;;6.35;;
25351;SDS011;13304;48.464;8.712;2023-08-20T03:37:34;9.25;;;6.38;;
25351;SDS011;13304;48.464;8.712;2023-08-20T03:40:00;12.63;;;6.78;;
25351;SDS011;13304;48.464;8.712;2023-08-20T03:42:26;12.52;;;6.68;;
25351;SDS011;13304;48.464;8.712;2023-08-20T03:44:51;10.25;;;7.22;;
25351;SDS011;13304;48.464;8.712;2023-08-20T03:47:17;8.65;;;6.43;;
25351;SDS011;13304;48.464;8.712;2023-08-20T03:49:46;8.07;;;6.10;;
25351;SDS011;13304;48.464;8.712;2023-08-20T03:52:13;8.30;;;5.78;;
25351;SDS011;13304;48.464;8.712;2023-08-20T03:54:39;9.35;;;6.40;;
25351;SDS011;13304;48.464;8.712;2023-08-20T03:57:05;11.07;;;6.70;;
25351;SDS011;13304;48.464;8.712;2023-08-20T03:59:30;9.25;;;6.28;;
25351;SDS011;13304;48.464;8.712;2023-08-20T04:01:56;7.57;;;6.03;;
25351;SDS011;13304;48.464;8.712;2023-08-20T04:04:22;13.23;;;6.00;;
25351;SDS011;13304;48.464;8.712;2023-08-20T04:06:48;6.53;;;5.85;;
25351;SDS011;13304;48.464;8.712;2023-08-20T04:09:13;12.23;;;7.10;;
25351;SDS011;13304;48.464;8.712;2023-08-20T04:11:39;7.85;;;6.35;;
25351;SDS011;13304;48.464;8.712;2023-08-20T04:14:05;8.90;;;6.65;;
25351;SDS011;13304;48.464;8.712;2023-08-20T04:16:31;13.38;;;7.18;;
25351;SDS011;13304;48.464;8.712;2023-08-20T04:18:56;11.40;;;6.28;;
25351;SDS011;13304;48.464;8.712;2023-08-20T04:21:22;8.85;;;6.90;;
25351;SDS011;13304;48.464;8.712;2023-08-20T04:23:48;10.82;;;6.45;;
25351;SDS011;13304;48.464;8.712;2023-08-20T04:26:13;8.15;;;6.40;;
25351;SDS011;13304;48.464;8.712;2023-08-20T04:28:39;9.32;;;6.57;;
25351;SDS011;13304;48.464;8.712;2023-08-20T04:31:05;8.50;;;5.82;;
25351;SDS011;13304;48.464;8.712;2023-08-20T04:33:31;10.00;;;6.68;;
25351;SDS011;13304;48.464;8.712;2023-08-20T04:35:56;10.65;;;6.22;;
25351;SDS011;13304;48.464;8.712;2023-08-20T04:38:22;7.25;;;6.20;;
25351;SDS011;13304;48.464;8.712;2023-08-20T04:40:48;9.82;;;6.72;;
25351;SDS011;13304;48.464;8.712;2023-08-20T04:43:14;8.50;;;6.63;;
25351;SDS011;13304;48.464;8.712;2023-08-20T04:45:41;9.90;;;6.50;;
25351;SDS011;13304;48.464;8.712;2023-08-20T04:48:07;7.05;;;6.35;;
25351;SDS011;13304;48.464;8.712;2023-08-20T04:50:33;9.52;;;7.53;;
25351;SDS011;13304;48.464;8.712;2023-08-20T04:52:59;11.07;;;7.00;;
25351;SDS011;13304;48.464;8.712;2023-08-20T04:55:25;11.00;;;7.07;;
25351;SDS011;13304;48.464;8.712;2023-08-20T04:57:51;10.70;;;6.65;;
25351;SDS011;13304;48.464;8.712;2023-08-20T05:00:17;9.85;;;6.60;;
25351;SDS011;13304;48.464;8.712;2023-08-20T05:02:43;10.30;;;7.10;;
25351;SDS011;13304;48.464;8.712;2023-08-20T05:05:10;9.85;;;6.72;;
25351;SDS011;13304;48.464;8.712;2023-08-20T05:07:35;9.75;;;6.53;;
25351;SDS011;13304;48.464;8.712;2023-08-20T05:10:01;8.20;;;6.55;;
25351;SDS011;13304;48.464;8.712;2023-08-20T05:12:27;11.98;;;7.15;;
25351;SDS011;13304;48.464;8.712;2023-08-20T05:14:53;10.15;;;7.53;;
25351;SDS011;13304;48.464;8.712;2023-08-20T05:17:19;10.73;;;7.10;;
25351;SDS011;13304;48.464;8.712;2023-08-20T05:19:45;11.90;;;7.53;;
25351;SDS011;13304;48.464;8.712;2023-08-20T05:22:11;14.07;;;7.47;;
25351;SDS011;13304;48.464;8.712;2023-08-20T05:24:37;15.32;;;7.55;;
25351;SDS011;13304;48.464;8.712;2023-08-20T05:29:32;8.07;;;6.93;;
25351;SDS011;13304;48.464;8.712;2023-08-20T05:31:58;11.98;;;7.45;;
25351;SDS011;13304;48.464;8.712;2023-08-20T05:34:24;14.40;;;7.22;;
25351;SDS011;13304;48.464;8.712;2023-08-20T05:36:50;10.35;;;7.90;;
25351;SDS011;13304;48.464;8.712;2023-08-20T05:39:15;12.32;;;7.82;;
25351;SDS011;13304;48.464;8.712;2023-08-20T05:41:41;11.18;;;7.53;;
25351;SDS011;13304;48.464;8.712;2023-08-20T05:44:07;11.27;;;7.70;;
25351;SDS011;13304;48.464;8.712;2023-08-20T05:46:32;10.55;;;7.28;;
25351;SDS011;13304;48.464;8.712;2023-08-20T05:48:58;9.60;;;6.75;;
25351;SDS011;13304;48.464;8.712;2023-08-20T05:51:24;11.95;;;7.50;;
25351;SDS011;13304;48.464;8.712;2023-08-20T05:53:49;9.32;;;6.93;;
25351;SDS011;13304;48.464;8.712;2023-08-20T05:56:15;9.57;;;7.10;;
25351;SDS011;13304;48.464;8.712;2023-08-20T05:58:41;18.30;;;7.15;;
25351;SDS011;13304;48.464;8.712;2023-08-20T06:01:06;14.00;;;6.97;;
25351;SDS011;13304;48.464;8.712;2023-08-20T06:03:32;10.27;;;6.95;;
25351;SDS011;13304;48.464;8.712;2023-08-20T06:05:58;10.07;;;7.35;;
25351;SDS011;13304;48.464;8.712;2023-08-20T06:08:23;11.82;;;7.18;;
25351;SDS011;13304;48.464;8.712;2023-08-20T06:10:50;11.43;;;6.72;;
25351;SDS011;13304;48.464;8.712;2023-08-20T06:13:16;10.07;;;7.65;;
25351;SDS011;13304;48.464;8.712;2023-08-20T06:15:41;8.98;;;6.70;;
25351;SDS011;13304;48.464;8.712;2023-08-20T06:18:07;10.57;;;6.90;;
25351;SDS011;13304;48.464;8.712;2023-08-20T06:20:33;9.05;;;7.20;;
25351;SDS011;13304;48.464;8.712;2023-08-20T06:22:58;8.40;;;7.15;;
25351;SDS011;13304;48.464;8.712;2023-08-20T06:25:25;8.88;;;7.72;;
25351;SDS011;13304;48.464;8.712;2023-08-20T06:27:51;9.30;;;7.68;;
25351;SDS011;13304;48.464;8.712;2023-08-20T06:30:16;13.52;;;7.60;;
25351;SDS011;13304;48.464;8.712;2023-08-20T06:32:43;10.10;;;7.45;;
25351;SDS011;13304;48.464;8.712;2023-08-20T06:35:10;12.23;;;7.88;;
25351;SDS011;13304;48.464;8.712;2023-08-20T06:37:36;13.68;;;7.90;;
25351;SDS011;13304;48.464;8.712;2023-08-20T06:40:03;11.65;;;7.85;;
25351;SDS011;13304;48.464;8.712;2023-08-20T06:42:30;8.68;;;7.05;;
25351;SDS011;13304;48.464;8.712;2023-08-20T06:44:55;10.27;;;7.25;;
25351;SDS011;13304;48.464;8.712;2023-08-20T06:47:21;7.80;;;6.60;;
25351;SDS011;13304;48.464;8.712;2023-08-20T06:49:47;9.32;;;7.22;;
25351;SDS011;13304;48.464;8.712;2023-08-20T06:52:12;8.25;;;7.43;;
25351;SDS011;13304;48.464;8.712;2023-08-20T06:54:38;9.60;;;7.10;;
25351;SDS011;13304;48.464;8.712;2023-08-20T06:57:04;14.10;;;7.10;;
25351;SDS011;13304;48.464;8.712;2023-08-20T06:59:30;10.05;;;7.78;;
25351;SDS011;13304;48.464;8.712;2023-08-20T07:01:55;11.00;;;7.25;;
25351;SDS011;13304;48.464;8.712;2023-08-20T07:04:21;10.93;;;7.78;;
25351;SDS011;13304;48.464;8.712;2023-08-20T07:06:47;11.32;;;6.93;;
25351;SDS011;13304;48.464;8.712;2023-08-20T07:09:13;13.93;;;7.05;;
25351;SDS011;13304;48.464;8.712;2023-08-20T07:11:38;13.18;;;7.03;;
25351;SDS011;13304;48.464;8.712;2023-08-20T07:14:04;15.02;;;7.18;;
25351;SDS011;13304;48.464;8.712;2023-08-20T07:16:30;9.70;;;7.18;;
25351;SDS011;13304;48.464;8.712;2023-08-20T07:18:56;14.95;;;7.28;;
25351;SDS011;13304;48.464;8.712;2023-08-20T07:21:22;8.75;;;7.03;;
25351;SDS011;13304;48.464;8.712;2023-08-20T07:23:48;9.95;;;7.22;;
25351;SDS011;13304;48.464;8.712;2023-08-20T07:26:13;12.75;;;6.97;;
25351;SDS011;13304;48.464;8.712;2023-08-20T07:28:40;11.23;;;6.68;;
25351;SDS011;13304;48.464;8.712;2023-08-20T07:31:22;10.77;;;6.80;;
25351;SDS011;13304;48.464;8.712;2023-08-20T07:33:51;9.95;;;6.65;;
25351;SDS011;13304;48.464;8.712;2023-08-20T07:36:19;6.95;;;6.25;;
25351;SDS011;13304;48.464;8.712;2023-08-20T07:38:47;15.15;;;7.05;;
25351;SDS011;13304;48.464;8.712;2023-08-20T07:41:13;10.70;;;7.00;;
25351;SDS011;13304;48.464;8.712;2023-08-20T07:43:39;9.05;;;6.75;;
25351;SDS011;13304;48.464;8.712;2023-08-20T07:46:06;11.55;;;6.72;;
25351;SDS011;13304;48.464;8.712;2023-08-20T07:48:33;13.80;;;6.72;;
25351;SDS011;13304;48.464;8.712;2023-08-20T07:50:59;12.50;;;6.97;;
25351;SDS011;13304;48.464;8.712;2023-08-20T07:53:26;8.57;;;6.55;;
25351;SDS011;13304;48.464;8.712;2023-08-20T07:55:51;7.90;;;6.72;;
25351;SDS011;13304;48.464;8.712;2023-08-20T07:58:17;12.30;;;7.00;;
25351;SDS011;13304;48.464;8.712;2023-08-20T08:00:43;12.48;;;7.00;;
25351;SDS011;13304;48.464;8.712;2023-08-20T08:03:09;8.25;;;6.30;;
25351;SDS011;13304;48.464;8.712;2023-08-20T08:05:35;7.32;;;5.88;;
25351;SDS011;13304;48.464;8.712;2023-08-20T08:08:01;11.13;;;6.43;;
25351;SDS011;13304;48.464;8.712;2023-08-20T08:10:27;9.93;;;6.20;;
25351;SDS011;13304;48.464;8.712;2023-08-20T08:12:53;11.77;;;6.38;;
25351;SDS011;13304;48.464;8.712;2023-08-20T08:15:19;13.80;;;6.40;;
25351;SDS011;13304;48.464;8.712;2023-08-20T08:17:45;8.63;;;6.13;;
25351;SDS011;13304;48.464;8.712;2023-08-20T08:20:11;11.25;;;6.57;;
25351;SDS011;13304;48.464;8.712;2023-08-20T08:22:36;9.48;;;5.90;;
25351;SDS011;13304;48.464;8.712;2023-08-20T08:25:02;7.40;;;5.88;;
25351;SDS011;13304;48.464;8.712;2023-08-20T08:27:28;10.70;;;5.90;;
25351;SDS011;13304;48.464;8.712;2023-08-20T08:29:54;17.95;;;6.30;;
25351;SDS011;13304;48.464;8.712;2023-08-20T08:32:20;11.75;;;6.75;;
25351;SDS011;13304;48.464;8.712;2023-08-20T08:34:45;10.10;;;5.95;;
25351;SDS011;13304;48.464;8.712;2023-08-20T08:37:11;8.05;;;5.65;;
25351;SDS011;13304;48.464;8.712;2023-08-20T08:39:37;9.93;;;5.85;;
25351;SDS011;13304;48.464;8.712;2023-08-20T08:42:03;10.13;;;5.75;;
25351;SDS011;13304;48.464;8.712;2023-08-20T08:44:34;7.28;;;5.93;;
25351;SDS011;13304;48.464;8.712;2023-08-20T08:47:01;9.15;;;5.90;;
25351;SDS011;13304;48.464;8.712;2023-08-20T08:49:28;8.80;;;5.50;;
25351;SDS011;13304;48.464;8.712;2023-08-20T08:51:58;10.48;;;5.07;;
25351;SDS011;13304;48.464;8.712;2023-08-20T08:54:25;10.88;;;5.35;;
25351;SDS011;13304;48.464;8.712;2023-08-20T08:56:52;10.25;;;5.07;;
25351;SDS011;13304;48.464;8.712;2023-08-20T08:59:18;9.07;;;5.10;;
25351;SDS011;13304;48.464;8.712;2023-08-20T09:01:44;6.90;;;5.15;;
25351;SDS011;13304;48.464;8.712;2023-08-20T09:04:10;10.88;;;5.25;;
25351;SDS011;13304;48.464;8.712;2023-08-20T09:06:46;11.68;;;5.38;;
25351;SDS011;13304;48.464;8.712;2023-08-20T09:09:20;11.43;;;4.35;;
25351;SDS011;13304;48.464;8.712;2023-08-20T09:11:46;9.90;;;5.22;;
25351;SDS011;13304;48.464;8.712;2023-08-20T09:14:23;7.38;;;4.80;;
25351;SDS011;13304;48.464;8.712;2023-08-20T09:16:58;8.35;;;4.75;;
25351;SDS011;13304;48.464;8.712;2023-08-20T09:19:31;7.80;;;4.93;;
25351;SDS011;13304;48.464;8.712;2023-08-20T09:22:02;8.10;;;4.80;;
25351;SDS011;13304;48.464;8.712;2023-08-20T09:24:38;14.00;;;4.90;;
25351;SDS011;13304;48.464;8.712;2023-08-20T09:27:05;8.95;;;4.68;;
25351;SDS011;13304;48.464;8.712;2023-08-20T09:29:43;5.70;;;4.00;;
25351;SDS011;13304;48.464;8.712;2023-08-20T09:32:09;10.23;;;4.57;;
25351;SDS011;13304;48.464;8.712;2023-08-20T09:34:44;9.07;;;4.25;;
25351;SDS011;13304;48.464;8.712;2023-08-20T09:37:10;11.40;;;4.80;;
25351;SDS011;13304;48.464;8.712;2023-08-20T09:39:38;6.45;;;4.18;;
25351;SDS011;13304;48.464;8.712;2023-08-20T09:42:05;10.18;;;4.32;;
25351;SDS011;13304;48.464;8.712;2023-08-20T09:44:35;9.25;;;4.28;;
25351;SDS011;13304;48.464;8.712;2023-08-20T09:47:08;10.00;;;4.90;;
25351;SDS011;13304;48.464;8.712;2023-08-20T09:49:39;7.82;;;4.50;;
25351;SDS011;13304;48.464;8.712;2023-08-20T09:52:07;9.23;;;4.97;;
25351;SDS011;13304;48.464;8.712;2023-08-20T09:57:29;6.88;;;5.45;;
25351;SDS011;13304;48.464;8.712;2023-08-20T09:59:59;6.47;;;5.18;;
25351;SDS011;13304;48.464;8.712;2023-08-20T10:02:26;8.23;;;5.53;;
25351;SDS011;13304;48.464;8.712;2023-08-20T10:04:52;14.00;;;5.47;;
25351;SDS011;13304;48.464;8.712;2023-08-20T10:07:18;8.30;;;4.88;;
25351;SDS011;13304;48.464;8.712;2023-08-20T10:09:44;8.05;;;5.03;;
25351;SDS011;13304;48.464;8.712;2023-08-20T10:12:12;8.02;;;4.90;;
25351;SDS011;13304;48.464;8.712;2023-08-20T10:14:39;7.28;;;4.95;;
25351;SDS011;13304;48.464;8.712;2023-08-20T10:17:06;9.68;;;4.82;;
25351;SDS011;13304;48.464;8.712;2023-08-20T10:19:36;5.40;;;4.90;;
25351;SDS011;13304;48.464;8.712;2023-08-20T10:22:03;7.63;;;4.57;;
25351;SDS011;13304;48.464;8.712;2023-08-20T10:24:39;8.00;;;5.15;;
25351;SDS011;13304;48.464;8.712;2023-08-20T10:27:35;10.20;;;5.10;;
25351;SDS011;13304;48.464;8.712;2023-08-20T10:30:10;8.40;;;5.07;;
25351;SDS011;13304;48.464;8.712;2023-08-20T10:32:48;8.43;;;5.22;;
25351;SDS011;13304;48.464;8.712;2023-08-20T10:35:28;11.15;;;5.10;;
25351;SDS011;13304;48.464;8.712;2023-08-20T10:38:12;10.00;;;5.10;;
25351;SDS011;13304;48.464;8.712;2023-08-20T10:40:57;11.00;;;4.85;;
25351;SDS011;13304;48.464;8.712;2023-08-20T10:48:38;8.43;;;4.82;;
25351;SDS011;13304;48.464;8.712;2023-08-20T10:53:38;11.48;;;5.20;;
25351;SDS011;13304;48.464;8.712;2023-08-20T10:56:11;9.70;;;5.25;;
25351;SDS011;13304;48.464;8.712;2023-08-20T10:58:42;7.72;;;5.13;;
25351;SDS011;13304;48.464;8.712;2023-08-20T11:01:22;8.82;;;5.28;;
25351;SDS011;13304;48.464;8.712;2023-08-20T11:03:48;6.20;;;4.72;;
25351;SDS011;13304;48.464;8.712;2023-08-20T11:06:15;7.15;;;4.53;;
25351;SDS011;13304;48.464;8.712;2023-08-20T11:08:43;8.45;;;4.90;;
25351;SDS011;13304;48.464;8.712;2023-08-20T11:11:10;8.77;;;4.85;;
25351;SDS011;13304;48.464;8.712;2023-08-20T11:13:36;9.93;;;5.18;;
25351;SDS011;13304;48.464;8.712;2023-08-20T11:16:02;9.13;;;5.00;;
25351;SDS011;13304;48.464;8.712;2023-08-20T11:18:29;6.88;;;4.50;;
25351;SDS011;13304;48.464;8.712;2023-08-20T11:20:59;8.10;;;5.10;;
25351;SDS011;13304;48.464;8.712;2023-08-20T11:23:25;7.00;;;4.45;;
25351;SDS011;13304;48.464;8.712;2023-08-20T11:25:51;11.40;;;4.93;;
25351;SDS011;13304;48.464;8.712;2023-08-20T11:28:16;7.72;;;4.32;;
25351;SDS011;13304;48.464;8.712;2023-08-20T11:30:42;10.63;;;4.60;;
25351;SDS011;13304;48.464;8.712;2023-08-20T11:33:08;7.25;;;4.40;;
25351;SDS011;13304;48.464;8.712;2023-08-20T11:35:34;8.15;;;4.55;;
25351;SDS011;13304;48.464;8.712;2023-08-20T11:38:02;13.40;;;4.80;;
25351;SDS011;13304;48.464;8.712;2023-08-20T11:40:29;10.85;;;4.65;;
25351;SDS011;13304;48.464;8.712;2023-08-20T11:42:55;10.27;;;4.68;;
25351;SDS011;13304;48.464;8.712;2023-08-20T11:45:21;12.73;;;4.78;;
25351;SDS011;13304;48.464;8.712;2023-08-20T11:47:46;7.70;;;4.22;;
25351;SDS011;13304;48.464;8.712;2023-08-20T11:50:12;6.90;;;4.20;;
25351;SDS011;13304;48.464;8.712;2023-08-20T11:52:38;36.85;;;6.05;;
25351;SDS011;13304;48.464;8.712;2023-08-20T11:55:05;8.48;;;4.88;;
25351;SDS011;13304;48.464;8.712;2023-08-20T11:57:31;10.07;;;4.93;;
25351;SDS011;13304;48.464;8.712;2023-08-20T12:00:03;8.38;;;4.60;;
25351;SDS011;13304;48.464;8.712;2023-08-20T12:02:33;5.68;;;4.03;;
25351;SDS011;13304;48.464;8.712;2023-08-20T12:04:59;11.13;;;4.20;;
25351;SDS011;13304;48.464;8.712;2023-08-20T12:07:28;9.13;;;4.35;;
25351;SDS011;13304;48.464;8.712;2023-08-20T12:09:54;10.40;;;4.50;;
25351;SDS011;13304;48.464;8.712;2023-08-20T12:12:20;7.65;;;4.38;;
25351;SDS011;13304;48.464;8.712;2023-08-20T12:14:47;14.15;;;4.32;;
25351;SDS011;13304;48.464;8.712;2023-08-20T12:17:17;13.48;;;4.45;;
25351;SDS011;13304;48.464;8.712;2023-08-20T12:19:43;14.48;;;4.55;;
25351;SDS011;13304;48.464;8.712;2023-08-20T12:22:09;6.65;;;4.30;;
25351;SDS011;13304;48.464;8.712;2023-08-20T12:24:35;10.88;;;4.30;;
25351;SDS011;13304;48.464;8.712;2023-08-20T12:27:01;10.07;;;4.68;;
25351;SDS011;13304;48.464;8.712;2023-08-20T12:29:27;6.80;;;3.70;;
25351;SDS011;13304;48.464;8.712;2023-08-20T12:31:53;5.13;;;4.15;;
25351;SDS011;13304;48.464;8.712;2023-08-20T12:34:19;9.95;;;4.50;;
25351;SDS011;13304;48.464;8.712;2023-08-20T12:36:46;6.18;;;3.95;;
25351;SDS011;13304;48.464;8.712;2023-08-20T12:39:13;11.57;;;4.85;;
25351;SDS011;13304;48.464;8.712;2023-08-20T12:41:39;12.00;;;4.20;;
25351;SDS011;13304;48.464;8.712;2023-08-20T12:44:05;9.40;;;4.35;;
25351;SDS011;13304;48.464;8.712;2023-08-20T12:46:30;7.38;;;4.47;;
25351;SDS011;13304;48.464;8.712;2023-08-20T12:48:56;9.50;;;4.25;;
25351;SDS011;13304;48.464;8.712;2023-08-20T12:51:22;7.95;;;4.22;;
25351;SDS011;13304;48.464;8.712;2023-08-20T12:53:48;13.23;;;4.68;;
25351;SDS011;13304;48.464;8.712;2023-08-20T12:56:14;9.63;;;4.22;;
25351;SDS011;13304;48.464;8.712;2023-08-20T12:58:41;6.28;;;3.53;;
25351;SDS011;13304;48.464;8.712;2023-08-20T13:01:06;7.47;;;3.85;;
25351;SDS011;13304;48.464;8.712;2023-08-20T13:03:33;8.73;;;4.10;;
25351;SDS011;13304;48.464;8.712;2023-08-20T13:05:59;8.82;;;3.90;;
25351;SDS011;13304;48.464;8.712;2023-08-20T13:08:25;9.95;;;4.45;;
25351;SDS011;13304;48.464;8.712;2023-08-20T13:10:55;7.93;;;3.78;;
25351;SDS011;13304;48.464;8.712;2023-08-20T13:13:22;5.43;;;3.60;;
25351;SDS011;13304;48.464;8.712;2023-08-20T13:15:52;19.27;;;4.63;;
25351;SDS011;13304;48.464;8.712;2023-08-20T13:18:19;7.00;;;4.00;;
25351;SDS011;13304;48.464;8.712;2023-08-20T13:20:48;5.60;;;3.72;;
25351;SDS011;13304;48.464;8.712;2023-08-20T13:23:14;7.43;;;4.05;;
25351;SDS011;13304;48.464;8.712;2023-08-20T13:25:40;8.25;;;4.25;;
25351;SDS011;13304;48.464;8.712;2023-08-20T13:28:05;14.18;;;4.07;;
25351;SDS011;13304;48.464;8.712;2023-08-20T13:30:31;7.32;;;3.92;;
25351;SDS011;13304;48.464;8.712;2023-08-20T13:32:58;8.15;;;3.78;;
25351;SDS011;13304;48.464;8.712;2023-08-20T13:35:24;9.15;;;3.53;;
25351;SDS011;13304;48.464;8.712;2023-08-20T13:37:49;6.32;;;3.80;;
25351;SDS011;13304;48.464;8.712;2023-08-20T13:40:15;7.97;;;3.47;;
25351;SDS011;13304;48.464;8.712;2023-08-20T13:42:41;6.55;;;3.78;;
25351;SDS011;13304;48.464;8.712;2023-08-20T13:45:07;9.98;;;4.25;;
25351;SDS011;13304;48.464;8.712;2023-08-20T13:47:33;10.43;;;4.75;;
25351;SDS011;13304;48.464;8.712;2023-08-20T13:49:59;10.82;;;4.35;;
25351;SDS011;13304;48.464;8.712;2023-08-20T13:52:24;9.85;;;4.10;;
25351;SDS011;13304;48.464;8.712;2023-08-20T13:54:50;5.63;;;3.67;;
25351;SDS011;13304;48.464;8.712;2023-08-20T13:57:22;11.15;;;4.25;;
25351;SDS011;13304;48.464;8.712;2023-08-20T13:59:48;7.45;;;3.92;;
25351;SDS011;13304;48.464;8.712;2023-08-20T14:02:14;6.40;;;3.75;;
25351;SDS011;13304;48.464;8.712;2023-08-20T14:04:40;8.65;;;3.80;;
25351;SDS011;13304;48.464;8.712;2023-08-20T14:07:06;12.85;;;4.30;;
25351;SDS011;13304;48.464;8.712;2023-08-20T14:09:31;6.85;;;3.20;;
25351;SDS011;13304;48.464;8.712;2023-08-20T14:11:59;11.57;;;3.90;;
25351;SDS011;13304;48.464;8.712;2023-08-20T14:14:25;9.60;;;3.45;;
25351;SDS011;13304;48.464;8.712;2023-08-20T14:16:51;7.63;;;3.92;;
25351;SDS011;13304;48.464;8.712;2023-08-20T14:19:16;14.23;;;3.70;;
25351;SDS011;13304;48.464;8.712;2023-08-20T14:21:42;6.32;;;3.83;;
25351;SDS011;13304;48.464;8.712;2023-08-20T14:24:08;9.65;;;3.40;;
25351;SDS011;13304;48.464;8.712;2023-08-20T14:26:33;9.48;;;4.13;;
25351;SDS011;13304;48.464;8.712;2023-08-20T14:28:59;9.30;;;4.18;;
25351;SDS011;13304;48.464;8.712;2023-08-20T14:31:25;11.65;;;4.20;;
25351;SDS011;13304;48.464;8.712;2023-08-20T14:33:50;11.30;;;3.67;;
25351;SDS011;13304;48.464;8.712;2023-08-20T14:36:16;11.50;;;4.30;;
25351;SDS011;13304;48.464;8.712;2023-08-20T14:38:42;10.90;;;4.28;;
25351;SDS011;13304;48.464;8.712;2023-08-20T14:41:07;10.43;;;4.20;;
25351;SDS011;13304;48.464;8.712;2023-08-20T14:43:33;6.55;;;4.07;;
25351;SDS011;13304;48.464;8.712;2023-08-20T14:45:59;7.07;;;3.70;;
25351;SDS011;13304;48.464;8.712;2023-08-20T14:48:24;11.65;;;3.75;;
25351;SDS011;13304;48.464;8.712;2023-08-20T14:50:50;8.60;;;3.75;;
25351;SDS011;13304;48.464;8.712;2023-08-20T14:53:17;10.10;;;4.03;;
25351;SDS011;13304;48.464;8.712;2023-08-20T14:55:43;13.05;;;4.05;;
25351;SDS011;13304;48.464;8.712;2023-08-20T14:58:10;10.45;;;4.07;;
25351;SDS011;13304;48.464;8.712;2023-08-20T15:00:35;6.35;;;3.97;;
25351;SDS011;13304;48.464;8.712;2023-08-20T15:03:01;9.18;;;4.03;;
25351;SDS011;13304;48.464;8.712;2023-08-20T15:05:34;7.57;;;3.83;;
25351;SDS011;13304;48.464;8.712;2023-08-20T15:07:59;7.10;;;4.18;;
25351;SDS011;13304;48.464;8.712;2023-08-20T15:10:25;7.47;;;3.72;;
25351;SDS011;13304;48.464;8.712;2023-08-20T15:12:51;9.20;;;4.53;;